createdAt,value
2023-04-21T00:01:19.734Z,6.10
2023-04-21T00:03:47.070Z,6.10
2023-04-21T00:06:13.254Z,6.20
2023-04-21T00:08:39.846Z,6.20
2023-04-21T00:11:06.778Z,6.30
2023-04-21T00:13:34.233Z,6.40
2023-04-21T00:16:01.041Z,6.40
2023-04-21T00:18:27.322Z,6.50
2023-04-21T00:20:53.521Z,6.50
2023-04-21T00:23:19.810Z,6.50
2023-04-21T00:25:45.961Z,6.50
2023-04-21T00:28:12.131Z,6.50
2023-04-21T00:30:38.255Z,6.40
2023-04-21T00:33:04.434Z,6.40
2023-04-21T00:35:30.849Z,6.30
2023-04-21T00:37:57.431Z,7.80
2023-04-21T00:40:23.728Z,6.20
2023-04-21T00:42:50.042Z,6.20
2023-04-21T00:45:16.156Z,6.20
2023-04-21T00:47:42.525Z,6.20
2023-04-21T00:50:10.194Z,6.20
2023-04-21T00:52:36.506Z,6.10
2023-04-21T00:55:04.653Z,6.00
2023-04-21T00:57:31.251Z,6.00
2023-04-21T00:59:57.715Z,5.90
2023-04-21T01:02:24.135Z,5.80
2023-04-21T01:04:50.719Z,5.80
2023-04-21T01:07:16.954Z,5.70
2023-04-21T01:09:43.333Z,5.80
2023-04-21T01:12:10.895Z,6.00
2023-04-21T01:14:38.372Z,6.10
2023-04-21T01:17:05.438Z,6.30
2023-04-21T01:19:38.661Z,6.40
2023-04-21T01:22:06.644Z,6.60
2023-04-21T01:24:46.333Z,6.70
2023-04-21T01:27:18.431Z,6.70
2023-04-21T01:29:48.370Z,6.90
2023-04-21T01:32:16.791Z,7.00
2023-04-21T01:34:43.555Z,7.00
2023-04-21T01:37:18.503Z,7.00
2023-04-21T01:39:46.553Z,6.90
2023-04-21T01:42:12.795Z,6.90
2023-04-21T01:44:39.049Z,6.20
2023-04-21T01:47:05.975Z,6.90
2023-04-21T01:49:32.109Z,6.90
2023-04-21T01:51:58.648Z,6.90
2023-04-21T01:54:24.794Z,7.00
2023-04-21T01:56:51.069Z,6.90
2023-04-21T01:59:17.382Z,7.00
2023-04-21T02:01:43.749Z,7.00
2023-04-21T02:04:10.218Z,7.00
2023-04-21T02:06:36.832Z,6.80
2023-04-21T02:09:03.055Z,6.70
2023-04-21T02:11:29.228Z,6.60
2023-04-21T02:13:55.914Z,6.70
2023-04-21T02:16:25.492Z,6.60
2023-04-21T02:18:53.036Z,6.50
2023-04-21T02:21:20.875Z,6.40
2023-04-21T02:23:47.013Z,6.30
2023-04-21T02:26:13.184Z,6.20
2023-04-21T02:28:39.335Z,6.30
2023-04-21T02:31:05.540Z,6.30
2023-04-21T02:33:31.725Z,6.30
2023-04-21T02:35:58.029Z,6.30
2023-04-21T02:38:24.632Z,6.40
2023-04-21T02:40:50.795Z,6.50
2023-04-21T02:43:17.086Z,6.50
2023-04-21T02:45:43.233Z,6.50
2023-04-21T02:48:09.510Z,6.40
2023-04-21T02:50:35.892Z,6.40
2023-04-21T02:53:02.026Z,6.50
2023-04-21T02:55:28.177Z,6.50
2023-04-21T02:57:54.310Z,6.40
2023-04-21T03:00:20.465Z,6.20
2023-04-21T03:02:46.742Z,6.00
2023-04-21T03:05:13.277Z,5.70
2023-04-21T03:07:39.485Z,5.40
2023-04-21T03:10:06.608Z,5.20
2023-04-21T03:12:32.769Z,5.10
2023-04-21T03:14:58.948Z,5.10
2023-04-21T03:17:25.157Z,5.10
2023-04-21T03:19:51.294Z,5.00
2023-04-21T03:22:17.440Z,4.90
2023-04-21T03:24:43.604Z,4.60
2023-04-21T03:27:10.998Z,4.40
2023-04-21T03:29:37.400Z,4.30
2023-04-21T03:32:03.667Z,4.20
2023-04-21T03:34:30.255Z,4.00
2023-04-21T03:36:57.544Z,3.90
2023-04-21T03:39:23.969Z,3.80
2023-04-21T03:41:50.651Z,3.90
2023-04-21T03:44:17.417Z,3.70
2023-04-21T03:46:43.620Z,4.20
2023-04-21T03:49:09.738Z,3.60
2023-04-21T03:51:35.900Z,3.50
2023-04-21T03:54:02.068Z,3.50
2023-04-21T03:56:28.216Z,3.50
2023-04-21T03:58:54.353Z,3.60
2023-04-21T04:01:21.285Z,3.70
2023-04-21T04:03:47.618Z,3.80
2023-04-21T04:06:13.854Z,3.80
2023-04-21T04:08:39.997Z,3.80
2023-04-21T04:11:06.592Z,3.90
2023-04-21T04:13:32.719Z,4.30
2023-04-21T04:15:59.041Z,5.00
2023-04-21T04:18:25.456Z,5.60
2023-04-21T04:20:51.637Z,5.80
2023-04-21T04:23:17.764Z,7.90
2023-04-21T04:25:43.913Z,6.20
2023-04-21T04:28:11.891Z,6.20
2023-04-21T04:30:38.065Z,6.20
2023-04-21T04:33:04.837Z,6.40
2023-04-21T04:35:31.088Z,6.30
2023-04-21T04:37:58.379Z,6.40
2023-04-21T04:40:24.682Z,6.60
2023-04-21T04:42:50.874Z,6.60
2023-04-21T04:45:17.005Z,6.70
2023-04-21T04:47:43.829Z,6.90
2023-04-21T04:50:10.125Z,7.20
2023-04-21T04:52:36.256Z,7.50
2023-04-21T04:55:03.563Z,8.10
2023-04-21T04:57:30.547Z,8.10
2023-04-21T04:59:56.708Z,8.90
2023-04-21T05:02:23.497Z,8.50
2023-04-21T05:04:50.429Z,8.70
2023-04-21T05:07:16.649Z,9.30
2023-04-21T05:09:42.753Z,10.30
2023-04-21T05:12:08.897Z,10.90
2023-04-21T05:14:35.033Z,11.40
2023-04-21T05:17:01.284Z,11.60
2023-04-21T05:19:27.574Z,11.80
2023-04-21T05:22:00.048Z,11.90
2023-04-21T05:24:26.262Z,12.20
2023-04-21T05:26:52.545Z,12.10
2023-04-21T05:29:18.673Z,12.20
2023-04-21T05:31:44.983Z,12.30
2023-04-21T05:34:11.178Z,12.40
2023-04-21T05:36:41.949Z,13.40
2023-04-21T05:39:08.329Z,13.50
2023-04-21T05:41:34.488Z,13.60
2023-04-21T05:44:00.610Z,14.60
2023-04-21T05:46:26.884Z,13.70
2023-04-21T05:48:53.410Z,13.90
2023-04-21T05:51:19.654Z,14.10
2023-04-21T05:53:45.867Z,14.80
2023-04-21T05:56:12.324Z,14.60
2023-04-21T05:58:38.570Z,14.80
2023-04-21T06:01:05.648Z,14.30
2023-04-21T06:03:32.460Z,14.70
2023-04-21T06:06:03.409Z,14.80
2023-04-21T06:08:29.630Z,14.80
2023-04-21T06:10:56.317Z,15.60
2023-04-21T06:13:22.575Z,15.20
2023-04-21T06:15:48.826Z,15.10
2023-04-21T06:18:15.613Z,15.20
2023-04-21T06:20:41.793Z,16.20
2023-04-21T06:23:09.264Z,16.10
2023-04-21T06:25:35.756Z,16.50
2023-04-21T06:28:02.334Z,17.00
2023-04-21T06:30:28.600Z,16.80
2023-04-21T06:32:54.966Z,16.90
2023-04-21T06:35:21.654Z,17.60
2023-04-21T06:37:47.803Z,17.90
2023-04-21T06:40:16.000Z,18.20
2023-04-21T06:42:42.721Z,17.80
2023-04-21T06:45:09.574Z,17.70
2023-04-21T06:47:35.863Z,17.70
2023-04-21T06:50:02.045Z,17.00
2023-04-21T06:52:28.295Z,17.40
2023-04-21T06:54:54.816Z,17.10
2023-04-21T06:57:21.081Z,16.70
2023-04-21T06:59:49.993Z,18.20
2023-04-21T07:02:16.196Z,17.80
2023-04-21T07:04:42.501Z,17.90
2023-04-21T07:07:09.373Z,18.50
2023-04-21T07:09:35.583Z,18.80
2023-04-21T07:12:02.282Z,19.80
2023-04-21T07:14:28.435Z,19.40
2023-04-21T07:16:56.481Z,20.70
2023-04-21T07:19:22.950Z,19.30
2023-04-21T07:21:49.162Z,20.40
2023-04-21T07:24:15.458Z,21.50
2023-04-21T07:26:41.820Z,21.50
2023-04-21T07:29:08.040Z,21.70
2023-04-21T07:31:34.429Z,21.10
2023-04-21T07:34:00.831Z,21.20
2023-04-21T07:36:27.717Z,22.90
2023-04-21T07:38:54.052Z,24.20
2023-04-21T07:41:21.057Z,23.40
2023-04-21T07:43:47.225Z,23.80
2023-04-21T07:46:13.434Z,23.20
2023-04-21T07:48:40.105Z,23.20
2023-04-21T07:51:06.484Z,21.70
2023-04-21T07:53:32.664Z,22.10
2023-04-21T07:55:59.017Z,23.40
2023-04-21T07:58:25.251Z,23.60
2023-04-21T08:00:51.705Z,22.80
2023-04-21T08:03:18.781Z,22.90
2023-04-21T08:05:46.783Z,23.90
2023-04-21T08:08:13.092Z,25.10
2023-04-21T08:10:39.389Z,25.40
2023-04-21T08:13:05.628Z,22.70
2023-04-21T08:15:33.350Z,24.10
2023-04-21T08:17:59.580Z,23.70
2023-04-21T08:20:25.935Z,23.10
2023-04-21T08:22:52.191Z,23.20
2023-04-21T08:25:18.696Z,24.30
2023-04-21T08:27:45.113Z,24.60
2023-04-21T08:30:11.814Z,23.70
2023-04-21T08:32:38.096Z,24.80
2023-04-21T08:35:04.787Z,24.10
2023-04-21T08:37:31.008Z,24.80
2023-04-21T08:39:57.791Z,25.40
2023-04-21T08:42:24.020Z,24.40
2023-04-21T08:44:50.323Z,22.30
2023-04-21T08:47:16.548Z,23.20
2023-04-21T08:49:44.759Z,23.80
2023-04-21T08:52:12.197Z,24.30
2023-04-21T08:54:38.740Z,22.80
2023-04-21T08:57:14.775Z,22.40
2023-04-21T08:59:44.802Z,23.80
2023-04-21T09:02:15.581Z,23.70
2023-04-21T09:04:44.152Z,23.10
2023-04-21T09:07:10.554Z,23.00
2023-04-21T09:09:57.894Z,22.70
2023-04-21T09:12:24.112Z,22.00
2023-04-21T09:14:50.751Z,21.80
2023-04-21T09:17:17.960Z,21.90
2023-04-21T09:19:44.433Z,22.90
2023-04-21T09:22:17.118Z,22.40
2023-04-21T09:24:47.594Z,22.50
2023-04-21T09:27:15.619Z,22.50
2023-04-21T09:29:47.351Z,22.20
2023-04-21T09:32:19.254Z,22.10
2023-04-21T09:34:45.376Z,22.10
2023-04-21T09:37:12.636Z,21.80
2023-04-21T09:39:49.738Z,22.40
2023-04-21T09:42:29.343Z,22.60
2023-04-21T09:45:06.108Z,22.50
2023-04-21T09:47:52.786Z,21.80
2023-04-21T09:50:26.597Z,21.90
2023-04-21T09:53:02.295Z,21.90
2023-04-21T09:55:28.968Z,22.00
2023-04-21T09:58:00.145Z,22.10
2023-04-21T10:00:30.488Z,22.00
2023-04-21T10:03:00.853Z,22.00
2023-04-21T10:05:28.166Z,21.50
2023-04-21T10:07:54.397Z,21.50
2023-04-21T10:10:27.671Z,21.00
2023-04-21T10:12:53.988Z,21.20
2023-04-21T10:17:12.484Z,21.60
2023-04-21T10:19:56.515Z,21.80
2023-04-21T10:22:34.824Z,21.70
2023-04-21T10:25:02.156Z,22.10
2023-04-21T10:27:35.985Z,22.00
2023-04-21T10:30:21.800Z,21.40
2023-04-21T10:32:48.124Z,21.20
2023-04-21T10:35:16.989Z,22.10
2023-04-21T10:37:43.318Z,22.40
2023-04-21T10:43:32.011Z,21.70
2023-04-21T10:45:58.192Z,22.10
2023-04-21T10:48:26.084Z,21.90
2023-04-21T10:50:52.346Z,21.70
2023-04-21T10:53:18.566Z,21.80
2023-04-21T10:55:48.335Z,21.10
2023-04-21T10:58:16.005Z,21.10
2023-04-21T11:00:42.437Z,21.90
2023-04-21T11:03:08.925Z,21.40
2023-04-21T11:05:40.198Z,21.20
2023-04-21T11:08:14.230Z,21.20
2023-04-21T11:10:51.753Z,21.30
2023-04-21T11:13:20.269Z,21.10
2023-04-21T11:16:05.757Z,20.90
2023-04-21T11:18:42.761Z,19.80
2023-04-21T11:21:25.764Z,20.10
2023-04-21T11:23:53.396Z,20.40
2023-04-21T11:26:32.719Z,20.50
2023-04-21T11:29:03.311Z,20.20
2023-04-21T11:31:30.490Z,19.30
2023-04-21T11:33:57.820Z,18.90
2023-04-21T11:36:24.031Z,18.70
2023-04-21T11:38:50.245Z,18.60
2023-04-21T11:41:23.249Z,18.60
2023-04-21T11:43:50.085Z,19.60
2023-04-21T11:46:24.122Z,19.60
2023-04-21T11:50:49.277Z,20.20
2023-04-21T11:53:15.696Z,20.40
2023-04-21T11:55:43.460Z,20.60
2023-04-21T11:58:10.065Z,21.00
2023-04-21T12:00:36.300Z,21.00
2023-04-21T12:03:02.660Z,21.10
2023-04-21T12:05:35.587Z,20.90
2023-04-21T12:08:03.800Z,21.20
2023-04-21T12:10:29.992Z,20.90
2023-04-21T12:12:56.408Z,20.80
2023-04-21T12:15:22.691Z,21.00
2023-04-21T12:17:50.680Z,21.00
2023-04-21T12:20:17.882Z,21.00
2023-04-21T12:22:44.198Z,21.00
2023-04-21T12:25:10.428Z,21.30
2023-04-21T12:27:36.576Z,21.40
2023-04-21T12:30:03.450Z,20.90
2023-04-21T12:32:30.235Z,20.70
2023-04-21T12:34:56.468Z,20.90
2023-04-21T12:37:22.755Z,21.30
2023-04-21T12:39:48.971Z,20.80
2023-04-21T12:42:15.380Z,20.80
2023-04-21T12:44:43.360Z,21.00
2023-04-21T12:47:09.909Z,21.20
2023-04-21T12:49:36.076Z,21.00
2023-04-21T12:52:05.000Z,21.30
2023-04-21T12:54:31.147Z,21.30
2023-04-21T12:56:57.863Z,21.20
2023-04-21T12:59:24.142Z,21.50
2023-04-21T13:01:50.696Z,21.60
2023-04-21T13:04:17.608Z,21.30
2023-04-21T13:06:44.312Z,20.70
2023-04-21T13:09:10.870Z,20.40
2023-04-21T13:11:37.053Z,19.60
2023-04-21T13:14:06.355Z,19.10
2023-04-21T13:16:32.613Z,19.20
2023-04-21T13:18:59.038Z,19.80
2023-04-21T13:21:26.023Z,19.90
2023-04-21T13:23:52.738Z,19.70
2023-04-21T13:26:18.922Z,20.00
2023-04-21T13:28:45.068Z,21.70
2023-04-21T13:31:11.292Z,20.60
2023-04-21T13:33:37.791Z,20.60
2023-04-21T13:36:04.665Z,21.00
2023-04-21T13:38:31.281Z,21.00
2023-04-21T13:40:57.537Z,21.30
2023-04-21T13:43:24.176Z,21.20
2023-04-21T13:45:51.536Z,20.90
2023-04-21T13:48:23.428Z,20.70
2023-04-21T13:50:50.417Z,20.50
2023-04-21T13:53:18.158Z,20.40
2023-04-21T13:55:46.287Z,20.50
2023-04-21T13:58:13.904Z,20.60
2023-04-21T14:00:40.210Z,20.80
2023-04-21T14:03:06.495Z,20.80
2023-04-21T14:05:33.412Z,21.10
2023-04-21T14:08:00.828Z,21.20
2023-04-21T14:10:27.182Z,21.10
2023-04-21T14:12:53.774Z,20.90
2023-04-21T14:15:20.228Z,20.80
2023-04-21T14:17:46.537Z,21.00
2023-04-21T14:20:13.061Z,21.10
2023-04-21T14:22:39.322Z,20.80
2023-04-21T14:25:05.847Z,21.00
2023-04-21T14:27:32.275Z,20.80
2023-04-21T14:30:00.235Z,20.30
2023-04-21T14:32:26.686Z,20.10
2023-04-21T14:34:53.961Z,20.00
2023-04-21T14:37:21.255Z,20.10
2023-04-21T14:39:47.476Z,20.20
2023-04-21T14:42:13.909Z,20.30
2023-04-21T14:44:40.190Z,20.40
2023-04-21T14:47:10.396Z,19.90
2023-04-21T14:49:38.523Z,20.00
2023-04-21T14:52:04.784Z,19.90
2023-04-21T14:54:31.350Z,19.60
2023-04-21T14:57:14.904Z,19.70
2023-04-21T14:59:46.001Z,19.60
2023-04-21T15:02:12.444Z,19.80
2023-04-21T15:04:38.977Z,19.70
2023-04-21T15:07:05.282Z,19.80
2023-04-21T15:09:31.534Z,19.60
2023-04-21T15:11:58.625Z,19.50
2023-04-21T15:14:25.229Z,19.50
2023-04-21T15:16:51.877Z,19.50
2023-04-21T15:19:18.221Z,19.60
2023-04-21T15:21:44.625Z,19.60
2023-04-21T15:24:11.037Z,19.40
2023-04-21T15:26:37.272Z,19.40
2023-04-21T15:29:04.626Z,19.30
2023-04-21T15:31:30.847Z,19.10
2023-04-21T15:33:57.082Z,19.10
2023-04-21T15:36:23.264Z,18.90
2023-04-21T15:38:49.881Z,18.80
2023-04-21T15:41:16.762Z,18.90
2023-04-21T15:43:42.940Z,18.90
2023-04-21T15:46:15.209Z,20.40
2023-04-21T15:48:41.686Z,18.70
2023-04-21T15:51:08.469Z,18.60
2023-04-21T15:53:36.570Z,18.60
2023-04-21T15:56:05.888Z,18.60
2023-04-21T15:58:32.098Z,18.60
2023-04-21T16:00:58.322Z,18.50
2023-04-21T16:03:25.465Z,18.60
2023-04-21T16:05:52.101Z,18.40
2023-04-21T16:08:18.841Z,18.30
2023-04-21T16:10:45.364Z,18.10
2023-04-21T16:13:11.658Z,18.10
2023-04-21T16:15:37.884Z,18.00
2023-04-21T16:18:05.814Z,18.00
2023-04-21T16:20:38.375Z,17.90
2023-04-21T16:23:04.626Z,17.90
2023-04-21T16:25:31.781Z,17.80
2023-04-21T16:27:58.076Z,17.70
2023-04-21T16:30:24.339Z,17.70
2023-04-21T16:32:50.533Z,17.60
2023-04-21T16:35:16.832Z,17.50
2023-04-21T16:37:43.606Z,17.50
2023-04-21T16:40:10.575Z,17.40
2023-04-21T16:42:37.391Z,17.30
2023-04-21T16:45:04.527Z,17.20
2023-04-21T16:47:33.337Z,17.20
2023-04-21T16:49:59.526Z,17.00
2023-04-21T16:52:25.820Z,16.90
2023-04-21T16:54:52.133Z,16.90
2023-04-21T16:57:18.435Z,16.70
2023-04-21T16:59:44.671Z,16.60
2023-04-21T17:02:11.731Z,16.60
2023-04-21T17:04:39.391Z,16.40
2023-04-21T17:07:06.245Z,16.20
2023-04-21T17:09:32.489Z,16.10
2023-04-21T17:11:58.958Z,16.00
2023-04-21T17:14:25.793Z,15.90
2023-04-21T17:16:52.505Z,15.70
2023-04-21T17:19:19.073Z,15.50
2023-04-21T17:21:45.274Z,15.40
2023-04-21T17:24:11.821Z,15.30
2023-04-21T17:26:38.112Z,15.20
2023-04-21T17:29:08.138Z,15.10
2023-04-21T17:31:34.785Z,14.90
2023-04-21T17:34:00.984Z,14.70
2023-04-21T17:36:29.208Z,14.60
2023-04-21T17:38:56.868Z,14.40
2023-04-21T17:41:26.288Z,14.40
2023-04-21T17:43:54.144Z,14.30
2023-04-21T17:46:25.193Z,14.10
2023-04-21T17:48:51.763Z,14.10
2023-04-21T17:51:18.677Z,14.10
2023-04-21T17:53:46.028Z,14.00
2023-04-21T17:56:13.647Z,14.00
2023-04-21T17:58:40.688Z,13.80
2023-04-21T18:01:07.269Z,13.80
2023-04-21T18:03:36.134Z,13.70
2023-04-21T18:06:04.216Z,13.70
2023-04-21T18:08:30.521Z,13.80
2023-04-21T18:10:56.881Z,13.80
2023-04-21T18:13:23.387Z,13.70
2023-04-21T18:15:50.066Z,13.80
2023-04-21T18:18:16.575Z,13.90
2023-04-21T18:20:43.005Z,13.70
2023-04-21T18:23:10.313Z,13.60
2023-04-21T18:25:42.713Z,13.40
2023-04-21T18:28:11.129Z,13.30
2023-04-21T18:30:38.183Z,13.10
2023-04-21T18:33:05.680Z,13.00
2023-04-21T18:35:33.235Z,13.00
2023-04-21T18:38:00.264Z,13.00
2023-04-21T18:40:27.081Z,13.00
2023-04-21T18:42:53.432Z,13.00
2023-04-21T18:45:19.947Z,12.80
2023-04-21T18:47:46.456Z,12.70
2023-04-21T18:50:12.829Z,12.60
2023-04-21T18:52:39.183Z,12.50
2023-04-21T18:55:05.988Z,12.50
2023-04-21T18:57:32.448Z,12.40
2023-04-21T19:00:00.219Z,12.20
2023-04-21T19:02:28.867Z,12.10
2023-04-21T19:04:55.799Z,11.80
2023-04-21T19:07:23.245Z,11.70
2023-04-21T19:09:51.467Z,13.20
2023-04-21T19:12:18.685Z,11.40
2023-04-21T19:14:47.515Z,11.20
2023-04-21T19:17:15.131Z,11.00
2023-04-21T19:19:41.647Z,10.80
2023-04-21T19:22:08.243Z,10.70
2023-04-21T19:24:35.300Z,10.70
2023-04-21T19:27:03.463Z,10.50
2023-04-21T19:29:32.415Z,10.60
2023-04-21T19:31:59.212Z,10.50
2023-04-21T19:34:26.670Z,10.50
2023-04-21T19:36:54.950Z,10.50
2023-04-21T19:39:21.952Z,10.40
2023-04-21T19:41:48.631Z,10.40
2023-04-21T19:44:16.083Z,10.30
2023-04-21T19:46:44.257Z,10.30
2023-04-21T19:49:12.268Z,10.30
2023-04-21T19:51:40.717Z,10.20
2023-04-21T19:54:11.438Z,10.20
2023-04-21T19:56:38.989Z,10.20
2023-04-21T19:59:05.501Z,10.00
2023-04-21T20:01:32.601Z,9.90
2023-04-21T20:03:59.213Z,9.70
2023-04-21T20:06:26.425Z,9.50
2023-04-21T20:08:52.906Z,9.30
2023-04-21T20:11:19.102Z,9.20
2023-04-21T20:13:46.231Z,7.60
2023-04-21T20:16:14.218Z,9.00
2023-04-21T20:18:41.170Z,8.90
2023-04-21T20:21:07.378Z,8.90
2023-04-21T20:23:33.579Z,8.90
2023-04-21T20:26:00.519Z,8.90
2023-04-21T20:28:26.939Z,8.80
2023-04-21T20:30:53.483Z,8.90
2023-04-21T20:33:19.654Z,8.80
2023-04-21T20:35:45.987Z,8.70
2023-04-21T20:38:12.243Z,8.80
2023-04-21T20:40:39.009Z,8.90
2023-04-21T20:43:05.671Z,9.00
2023-04-21T20:45:32.130Z,8.90
2023-04-21T20:47:58.295Z,8.90
2023-04-21T20:50:25.276Z,9.00
2023-04-21T20:52:51.634Z,8.80
2023-04-21T20:55:18.103Z,8.70
2023-04-21T20:57:44.391Z,8.50
2023-04-21T21:00:12.725Z,8.30
2023-04-21T21:02:40.696Z,8.20
2023-04-21T21:05:07.664Z,8.10
2023-04-21T21:07:33.829Z,8.00
2023-04-21T21:10:00.520Z,7.90
2023-04-21T21:12:26.682Z,7.70
2023-04-21T21:14:52.844Z,7.80
2023-04-21T21:17:19.043Z,7.70
2023-04-21T21:19:45.632Z,7.80
2023-04-21T21:22:11.843Z,7.80
2023-04-21T21:24:38.162Z,7.70
2023-04-21T21:27:04.523Z,7.70
2023-04-21T21:29:30.646Z,7.70
2023-04-21T21:31:56.932Z,7.70
2023-04-21T21:34:23.689Z,7.70
2023-04-21T21:36:49.939Z,7.80
2023-04-21T21:39:16.206Z,7.80
2023-04-21T21:41:42.425Z,7.80
2023-04-21T21:44:09.623Z,7.60
2023-04-21T21:46:37.020Z,8.70
2023-04-21T21:49:03.320Z,7.20
2023-04-21T21:51:29.957Z,7.00
2023-04-21T21:53:56.136Z,6.80
2023-04-21T21:56:25.166Z,6.60
2023-04-21T21:58:51.797Z,6.40
2023-04-21T22:01:18.173Z,6.30
2023-04-21T22:03:46.502Z,6.30
2023-04-21T22:06:14.306Z,6.30
2023-04-21T22:08:42.859Z,6.20
2023-04-21T22:11:09.031Z,6.20
2023-04-21T22:13:35.200Z,6.30
2023-04-21T22:16:01.765Z,6.30
2023-04-21T22:18:29.620Z,6.20
2023-04-21T22:20:57.500Z,6.00
2023-04-21T22:23:24.647Z,5.90
2023-04-21T22:25:50.948Z,5.90
2023-04-21T22:28:17.075Z,5.90
2023-04-21T22:30:43.224Z,5.90
2023-04-21T22:33:09.414Z,5.80
2023-04-21T22:35:35.597Z,5.60
2023-04-21T22:38:01.708Z,5.60
2023-04-21T22:40:27.908Z,5.50
2023-04-21T22:42:54.089Z,5.50
2023-04-21T22:45:20.987Z,5.50
2023-04-21T22:47:48.445Z,5.50
2023-04-21T22:50:15.227Z,5.50
2023-04-21T22:52:41.766Z,5.40
2023-04-21T22:55:08.574Z,5.40
2023-04-21T22:57:36.635Z,5.40
2023-04-21T23:00:10.320Z,5.40
2023-04-21T23:02:36.685Z,5.30
2023-04-21T23:05:03.151Z,5.20
2023-04-21T23:07:29.289Z,5.10
2023-04-21T23:09:55.474Z,5.20
2023-04-21T23:12:21.613Z,5.20
2023-04-21T23:14:48.209Z,5.10
2023-04-21T23:17:14.421Z,5.00
2023-04-21T23:19:41.729Z,5.00
2023-04-21T23:22:07.883Z,5.00
2023-04-21T23:24:34.093Z,5.00
2023-04-21T23:27:00.761Z,4.90
2023-04-21T23:29:26.919Z,4.80
2023-04-21T23:31:53.122Z,4.70
2023-04-21T23:34:19.675Z,4.70
2023-04-21T23:36:45.823Z,4.70
2023-04-21T23:39:11.994Z,4.70
2023-04-21T23:41:38.335Z,4.70
2023-04-21T23:44:04.791Z,4.60
2023-04-21T23:46:30.944Z,4.50
2023-04-21T23:48:57.084Z,4.50
2023-04-21T23:51:23.287Z,4.50
2023-04-21T23:53:49.547Z,4.50
2023-04-21T23:56:15.703Z,4.50
2023-04-21T23:58:44.899Z,4.60
